Terminal Aerodrome Forecast
Issued by NWS Louisville, KY

Home | Current Version | Previous Version | Text Only | Print | Product List | Glossary On
Versions: 1 2 3 4 5 6 7 8 9 10 11 12 13 14
000
FTUS43 KLMK 241100
TAFLEX
TAF
KLEX 241120Z 2412/2512 07005KT P6SM BKN150
     FM241400 12008KT P6SM BKN120
     FM241900 16010KT P6SM SCT120 BKN250
     FM250100 15008KT P6SM BKN050 BKN120
     FM250700 18014KT P6SM VCSH BKN035=

USA.gov is the U.S. government's official web portal to all federal, state and local government web resources and services.